This is the latest recevied weather packets stored in our database for station/object NI2O. If no packets are shown the sender has not sent any weather packets the latest 10 day(s).
| Time | Temp. | Humidity | Pressure | Rain* | Wind** | Luminosity | Snow |
|---|---|---|---|---|---|---|---|
| 1777221783 | 8.89° C | 82% | 1019 hPa | 0 mm | - | 223 W/m² | - |
| 1777218714 | 7.78° C | 86% | 1019.1 hPa | 0 mm | - | 137 W/m² | - |
| 1777216565 | 7.22° C | 89% | 1019.1 hPa | 0 mm | - | 99 W/m² | - |
| 1777215951 | 6.67° C | 90% | 1018.6 hPa | 0 mm | - | 106 W/m² | - |
| 1777215337 | 6.67° C | 90% | 1018.6 hPa | 0 mm | - | 101 W/m² | - |
| 1777212903 | 6.11° C | 91% | 1018.3 hPa | 0 mm | - | 206 W/m² | - |
| 1777207359 | 5.56° C | 96% | 1017.8 hPa | 0 mm | - | 46 W/m² | - |
| 1777205518 | 5.56° C | 96% | 1017.5 hPa | 0 mm | - | 55 W/m² | - |
| 1777205207 | 5.56° C | 95% | 1017.4 hPa | 0 mm | - | 62 W/m² | - |
| 1777200932 | 5° C | 97% | 1016.3 hPa | 0 mm | - | 6 W/m² | - |
| 1777199070 | 5.56° C | 98% | 1016 hPa | 0 mm | - | 2 W/m² | - |
| 1777195388 | 5° C | 98% | 1015.5 hPa | 0 mm | - | 0 W/m² | - |
| 1777189864 | 5° C | 98% | 1014.9 hPa | 0 mm | - | 0 W/m² | - |
| 1777188022 | 5° C | 99% | 1015 hPa | 0 mm | - | 0 W/m² | - |
| 1777186181 | 5° C | 99% | 1015.1 hPa | 0 mm | - | 0 W/m² | - |
| 1777176975 | 5° C | 98% | 1015.3 hPa | 0 mm | - | 0 W/m² | - |
| 1777174519 | 5° C | 98% | 1015.3 hPa | 0 mm | - | 0 W/m² | - |
| 1777173907 | 5.56° C | 98% | 1015.2 hPa | 0 mm | - | 0 W/m² | - |
| 1777171450 | 5.56° C | 98% | 1015.7 hPa | 0 mm | - | 0 W/m² | - |
| 1777165927 | 6.11° C | 97% | 1015 hPa | 0 mm | - | 0 W/m² | - |
| 1777162568 | 6.11° C | 96% | 1014.3 hPa | 0 mm | - | 0 W/m² | - |
* Rain latest hour (hover to see other rain measurements)
** Current wind speed in m/s (hover to see current wind gust speed)